Time;durP1;ratioP1;P1;durP2;ratioP2;P2;SDS_P1;SDS_P2;PMS_P1;PMS_P2;Temp;Humidity;BMP_temperature;BMP_pressure;BME280_temperature;BME280_humidity;BME280_pressure;Samples;Min_cycle;Max_cycle;Signal;HPM_P1;HPM_P2
2023/09/29 00:00:06;;;;;;;5.80;4.53;;;;;;;;;;10329348;28;20180;-63
2023/09/29 00:05:09;;;;;;;6.95;4.10;;;;;;;;;;10328558;28;20040;-65
2023/09/29 00:10:17;;;;;;;11.40;4.63;;;;;;;;;;10328209;28;20486;-63
2023/09/29 00:15:19;;;;;;;7.82;4.38;;;;;;;;;;10328258;28;20023;-59
2023/09/29 00:20:25;;;;;;;6.60;4.57;;;;;;;;;;10328396;28;20100;-62
2023/09/29 00:25:27;;;;;;;8.65;4.40;;;;;;;;;;10328036;28;20061;-63
2023/09/29 00:30:28;;;;;;;4.90;4.00;;;;;;;;;;10328022;28;20538;-59
2023/09/29 00:35:28;;;;;;;5.22;3.72;;;;;;;;;;10328063;28;20022;-66
2023/09/29 00:40:30;;;;;;;7.18;3.90;;;;;;;;;;10327483;28;20042;-60
2023/09/29 00:45:32;;;;;;;6.20;3.92;;;;;;;;;;10327846;28;20076;-65
2023/09/29 00:50:35;;;;;;;4.68;4.05;;;;;;;;;;10326825;28;20031;-60
2023/09/29 00:55:36;;;;;;;5.70;3.97;;;;;;;;;;10327507;28;20061;-59
2023/09/29 01:00:40;;;;;;;4.78;4.18;;;;;;;;;;10326321;28;20029;-61
2023/09/29 01:05:44;;;;;;;5.28;3.88;;;;;;;;;;10342330;28;20093;-64
2023/09/29 01:10:44;;;;;;;9.30;4.10;;;;;;;;;;10326565;28;20430;-66
2023/09/29 01:15:45;;;;;;;6.70;3.60;;;;;;;;;;10326962;28;20027;-63
2023/09/29 01:20:46;;;;;;;7.78;3.78;;;;;;;;;;10326740;28;20437;-66
2023/09/29 01:25:46;;;;;;;4.30;3.53;;;;;;;;;;10326960;28;20092;-63
2023/09/29 01:30:53;;;;;;;5.25;3.95;;;;;;;;;;10326552;28;20431;-62
2023/09/29 01:35:53;;;;;;;4.18;3.42;;;;;;;;;;10327528;28;20035;-59
2023/09/29 01:40:55;;;;;;;4.65;3.78;;;;;;;;;;10326252;28;20030;-59
2023/09/29 01:45:56;;;;;;;6.35;3.88;;;;;;;;;;10326777;28;20048;-63
2023/09/29 01:50:56;;;;;;;4.55;3.85;;;;;;;;;;10326181;28;20415;-59
2023/09/29 01:55:57;;;;;;;4.80;3.63;;;;;;;;;;10326258;28;20406;-67
2023/09/29 02:00:58;;;;;;;4.72;3.70;;;;;;;;;;10326251;28;20441;-64
2023/09/29 02:05:58;;;;;;;4.60;3.38;;;;;;;;;;10331510;28;20026;-65
2023/09/29 02:11:00;;;;;;;7.50;3.60;;;;;;;;;;10333252;28;20296;-61
2023/09/29 02:16:05;;;;;;;6.93;3.63;;;;;;;;;;10332902;28;20027;-67
2023/09/29 02:21:09;;;;;;;7.07;3.38;;;;;;;;;;10333224;28;20034;-67
2023/09/29 02:26:09;;;;;;;6.95;3.83;;;;;;;;;;10332852;28;20106;-67
2023/09/29 02:31:13;;;;;;;8.73;3.83;;;;;;;;;;10332856;28;20042;-68
2023/09/29 02:36:13;;;;;;;4.53;4.00;;;;;;;;;;10332118;28;20095;-68
2023/09/29 02:41:14;;;;;;;3.53;3.22;;;;;;;;;;10331789;28;20088;-67
2023/09/29 02:46:15;;;;;;;4.45;3.80;;;;;;;;;;10331795;28;20034;-63
2023/09/29 02:51:18;;;;;;;6.32;3.65;;;;;;;;;;10331987;28;20034;-68
2023/09/29 02:56:18;;;;;;;8.05;4.28;;;;;;;;;;10331764;28;20045;-64
2023/09/29 03:01:19;;;;;;;6.30;3.60;;;;;;;;;;10331071;28;20505;-64
2023/09/29 03:06:23;;;;;;;9.20;3.78;;;;;;;;;;10330730;28;20423;-63
2023/09/29 03:11:24;;;;;;;6.28;4.00;;;;;;;;;;10331474;28;20050;-66
2023/09/29 03:16:25;;;;;;;5.15;3.60;;;;;;;;;;10330072;28;20049;-60
2023/09/29 03:21:26;;;;;;;6.82;3.40;;;;;;;;;;10330649;28;20034;-65
2023/09/29 03:26:27;;;;;;;3.92;3.50;;;;;;;;;;10330911;28;20034;-60
2023/09/29 03:31:27;;;;;;;5.78;3.63;;;;;;;;;;10330057;28;20031;-64
2023/09/29 03:36:30;;;;;;;8.15;3.95;;;;;;;;;;10329774;28;20026;-61
2023/09/29 03:41:31;;;;;;;5.93;3.67;;;;;;;;;;10329377;28;20026;-61
2023/09/29 03:46:32;;;;;;;6.00;4.00;;;;;;;;;;10329380;28;20026;-61
2023/09/29 03:51:33;;;;;;;5.45;3.97;;;;;;;;;;10329098;28;20030;-61
2023/09/29 03:56:34;;;;;;;6.38;3.80;;;;;;;;;;10329510;28;20026;-62
2023/09/29 04:01:35;;;;;;;6.95;3.67;;;;;;;;;;10329267;28;20386;-64
2023/09/29 04:06:36;;;;;;;5.40;4.07;;;;;;;;;;10328535;28;20033;-65
2023/09/29 04:11:38;;;;;;;7.13;3.70;;;;;;;;;;10328219;28;20042;-64
2023/09/29 04:16:39;;;;;;;6.65;3.55;;;;;;;;;;10328835;28;20030;-59
2023/09/29 04:21:39;;;;;;;9.15;4.50;;;;;;;;;;10328598;28;20038;-61
2023/09/29 04:26:40;;;;;;;4.55;4.00;;;;;;;;;;10327914;28;20088;-58
2023/09/29 04:31:41;;;;;;;4.40;3.50;;;;;;;;;;10328062;28;20030;-59
2023/09/29 04:36:42;;;;;;;6.25;4.00;;;;;;;;;;10327589;28;20394;-66
2023/09/29 04:41:43;;;;;;;5.90;4.03;;;;;;;;;;10327913;28;20050;-60
2023/09/29 04:46:44;;;;;;;6.65;4.15;;;;;;;;;;10327499;28;20105;-62
2023/09/29 04:51:45;;;;;;;5.22;3.97;;;;;;;;;;10326927;28;20462;-60
2023/09/29 04:56:46;;;;;;;6.80;4.32;;;;;;;;;;10327762;28;20026;-63
2023/09/29 05:01:46;;;;;;;6.47;3.80;;;;;;;;;;10326792;28;20049;-63
2023/09/29 05:06:47;;;;;;;5.28;3.85;;;;;;;;;;10326884;28;20034;-60
2023/09/29 05:11:47;;;;;;;5.30;4.20;;;;;;;;;;10326474;28;20347;-59
2023/09/29 05:16:49;;;;;;;6.05;3.72;;;;;;;;;;10327014;28;20027;-60
2023/09/29 05:21:50;;;;;;;9.48;3.90;;;;;;;;;;10326398;28;20398;-63
2023/09/29 05:26:51;;;;;;;8.95;3.92;;;;;;;;;;10326425;28;20029;-64
2023/09/29 05:31:51;;;;;;;14.52;4.07;;;;;;;;;;10326236;28;20406;-68
2023/09/29 05:36:52;;;;;;;7.38;4.10;;;;;;;;;;10326916;28;20363;-66
2023/09/29 05:41:52;;;;;;;7.82;3.25;;;;;;;;;;10333774;28;20496;-67
2023/09/29 05:46:53;;;;;;;6.25;4.10;;;;;;;;;;10334247;28;20026;-67
2023/09/29 05:51:54;;;;;;;6.38;4.13;;;;;;;;;;10331280;28;20294;-62
2023/09/29 05:56:54;;;;;;;6.07;3.92;;;;;;;;;;10332840;28;20429;-63
2023/09/29 06:01:56;;;;;;;5.10;3.28;;;;;;;;;;10333572;28;20488;-65
2023/09/29 06:06:57;;;;;;;4.95;3.45;;;;;;;;;;10347570;28;20026;-64
2023/09/29 06:11:57;;;;;;;5.45;4.18;;;;;;;;;;10332400;28;20053;-64
2023/09/29 06:16:59;;;;;;;6.25;3.80;;;;;;;;;;10333202;28;20034;-63
2023/09/29 06:22:00;;;;;;;7.07;4.40;;;;;;;;;;10332558;28;20467;-64
2023/09/29 06:27:01;;;;;;;10.73;3.75;;;;;;;;;;10332467;28;20026;-62
2023/09/29 06:32:02;;;;;;;7.47;4.10;;;;;;;;;;10332172;28;20026;-62
2023/09/29 06:37:02;;;;;;;9.45;4.25;;;;;;;;;;10332412;28;20113;-62
2023/09/29 06:42:04;;;;;;;9.43;4.15;;;;;;;;;;10332116;28;20486;-60
2023/09/29 06:47:04;;;;;;;8.48;3.83;;;;;;;;;;10332484;28;20062;-60
2023/09/29 06:52:05;;;;;;;9.18;4.45;;;;;;;;;;10331049;28;20077;-57
2023/09/29 06:57:06;;;;;;;8.57;4.28;;;;;;;;;;10331390;28;20031;-61
2023/09/29 07:02:06;;;;;;;4.90;3.78;;;;;;;;;;10330912;28;20030;-57
2023/09/29 07:07:07;;;;;;;13.35;4.90;;;;;;;;;;10330794;28;20030;-57
2023/09/29 07:12:07;;;;;;;11.80;4.72;;;;;;;;;;10330653;28;20133;-59
2023/09/29 07:17:08;;;;;;;11.32;4.03;;;;;;;;;;10330429;28;20065;-57
2023/09/29 07:22:09;;;;;;;7.28;3.58;;;;;;;;;;10330440;28;20034;-57
2023/09/29 07:27:12;;;;;;;7.57;4.25;;;;;;;;;;10330506;28;20034;-57
2023/09/29 07:32:12;;;;;;;12.45;4.13;;;;;;;;;;10330109;28;20108;-57
2023/09/29 07:37:13;;;;;;;4.13;3.78;;;;;;;;;;10330048;28;20026;-57
2023/09/29 07:42:13;;;;;;;7.57;3.55;;;;;;;;;;10329620;28;20033;-57
2023/09/29 07:47:14;;;;;;;4.97;3.78;;;;;;;;;;10329084;28;20398;-57
2023/09/29 07:52:15;;;;;;;7.20;3.88;;;;;;;;;;10328858;28;20026;-58
2023/09/29 07:57:15;;;;;;;7.70;3.70;;;;;;;;;;10328698;28;20111;-57
2023/09/29 08:02:16;;;;;;;6.10;3.78;;;;;;;;;;10328212;28;20474;-57
2023/09/29 08:07:17;;;;;;;4.75;3.78;;;;;;;;;;10327464;28;20395;-56
2023/09/29 08:12:18;;;;;;;6.57;3.65;;;;;;;;;;10328017;28;20073;-59
2023/09/29 08:17:19;;;;;;;5.32;3.53;;;;;;;;;;10328067;28;20439;-57
2023/09/29 08:22:19;;;;;;;6.68;3.38;;;;;;;;;;10328258;28;20039;-58
2023/09/29 08:27:20;;;;;;;6.53;3.35;;;;;;;;;;10327738;28;20030;-58
2023/09/29 08:32:20;;;;;;;5.13;3.83;;;;;;;;;;10327412;28;20022;-58
2023/09/29 08:37:22;;;;;;;6.55;3.60;;;;;;;;;;10327408;28;20073;-65
2023/09/29 08:42:45;;;;;;;5.45;3.80;;;;;;;;;;10327096;28;20241;-56
2023/09/29 08:47:52;;;;;;;4.07;3.25;;;;;;;;;;10327170;28;20029;-62
2023/09/29 08:52:53;;;;;;;7.03;3.83;;;;;;;;;;10327452;28;20042;-58
2023/09/29 08:57:55;;;;;;;4.18;3.53;;;;;;;;;;10326961;28;20026;-58
2023/09/29 09:02:58;;;;;;;7.10;3.63;;;;;;;;;;10326618;28;20363;-56
2023/09/29 09:08:01;;;;;;;6.47;3.67;;;;;;;;;;10327148;28;20089;-63
2023/09/29 09:13:02;;;;;;;5.35;3.35;;;;;;;;;;10329405;28;20046;-61
2023/09/29 09:18:04;;;;;;;5.75;3.70;;;;;;;;;;10334833;28;20080;-57
2023/09/29 09:23:04;;;;;;;5.60;3.80;;;;;;;;;;10334429;28;20509;-57
2023/09/29 09:28:06;;;;;;;4.50;3.55;;;;;;;;;;10334542;28;20037;-57
2023/09/29 09:33:06;;;;;;;6.78;3.38;;;;;;;;;;10332969;28;20545;-59
2023/09/29 09:38:07;;;;;;;4.15;3.60;;;;;;;;;;10334749;28;20030;-59
2023/09/29 09:43:10;;;;;;;5.57;3.53;;;;;;;;;;10333940;28;20034;-57
2023/09/29 09:48:15;;;;;;;4.90;3.70;;;;;;;;;;10334717;28;20034;-57
2023/09/29 09:53:18;;;;;;;3.92;3.50;;;;;;;;;;10333965;28;20038;-61
2023/09/29 09:58:22;;;;;;;7.07;3.53;;;;;;;;;;10333172;28;20390;-60
2023/09/29 10:03:26;;;;;;;6.68;3.95;;;;;;;;;;10332934;28;20064;-60
2023/09/29 10:08:30;;;;;;;4.40;3.30;;;;;;;;;;10332784;28;20085;-60
2023/09/29 10:13:35;;;;;;;5.50;3.97;;;;;;;;;;10332565;28;20057;-58
2023/09/29 10:18:36;;;;;;;7.57;3.20;;;;;;;;;;10333164;28;20034;-61
2023/09/29 10:23:49;;;;;;;3.70;3.40;;;;;;;;;;10331221;28;20026;-60
2023/09/29 10:29:00;;;;;;;4.78;3.15;;;;;;;;;;10333214;28;20030;-59
2023/09/29 10:34:01;;;;;;;4.20;3.08;;;;;;;;;;10332493;28;20033;-61
2023/09/29 10:39:04;;;;;;;4.85;3.60;;;;;;;;;;10332346;28;20489;-58
2023/09/29 10:44:05;;;;;;;3.90;3.28;;;;;;;;;;10331976;28;20370;-58
2023/09/29 10:49:06;;;;;;;4.65;3.45;;;;;;;;;;10331989;28;20374;-58
2023/09/29 10:54:07;;;;;;;4.63;3.20;;;;;;;;;;10331716;28;20034;-61
2023/09/29 10:59:09;;;;;;;5.57;3.63;;;;;;;;;;10331464;28;20033;-57
2023/09/29 11:04:10;;;;;;;5.93;3.35;;;;;;;;;;10330758;28;20034;-55
2023/09/29 11:09:16;;;;;;;5.30;3.75;;;;;;;;;;10346376;28;20122;-59
2023/09/29 11:14:17;;;;;;;8.93;3.72;;;;;;;;;;10330578;28;20050;-55
2023/09/29 11:19:17;;;;;;;4.20;3.42;;;;;;;;;;10330752;28;20466;-56
2023/09/29 11:24:19;;;;;;;4.78;3.42;;;;;;;;;;10330011;28;20502;-58
2023/09/29 11:29:29;;;;;;;5.70;3.65;;;;;;;;;;10329429;28;20026;-60
2023/09/29 11:34:31;;;;;;;4.95;3.78;;;;;;;;;;10329472;28;20558;-59
2023/09/29 11:39:32;;;;;;;5.47;3.88;;;;;;;;;;10329370;28;20486;-63
2023/09/29 11:44:34;;;;;;;6.72;3.63;;;;;;;;;;10329021;28;20035;-64
2023/09/29 11:49:35;;;;;;;5.78;3.55;;;;;;;;;;10329437;28;20034;-58
2023/09/29 11:54:36;;;;;;;4.65;3.67;;;;;;;;;;10328702;28;20027;-57
2023/09/29 11:59:37;;;;;;;5.57;3.47;;;;;;;;;;10328430;28;20026;-56
2023/09/29 12:04:39;;;;;;;8.85;3.65;;;;;;;;;;10327431;28;20026;-59
2023/09/29 12:09:40;;;;;;;6.45;3.70;;;;;;;;;;10328914;28;20041;-58
2023/09/29 12:14:41;;;;;;;5.45;3.67;;;;;;;;;;10328580;28;20050;-55
2023/09/29 12:19:42;;;;;;;9.00;3.67;;;;;;;;;;10328017;28;20037;-62
2023/09/29 12:24:43;;;;;;;13.45;4.25;;;;;;;;;;10327898;28;20034;-59
2023/09/29 12:29:44;;;;;;;6.50;3.78;;;;;;;;;;10326493;28;20026;-58
2023/09/29 12:34:45;;;;;;;8.65;4.13;;;;;;;;;;10326846;28;20359;-54
2023/09/29 12:39:49;;;;;;;9.15;4.20;;;;;;;;;;10327306;28;20026;-56
2023/09/29 12:44:49;;;;;;;6.53;4.30;;;;;;;;;;10326486;28;20034;-54
2023/09/29 12:49:50;;;;;;;11.68;4.40;;;;;;;;;;10325686;28;20043;-56
2023/09/29 12:54:51;;;;;;;5.00;3.40;;;;;;;;;;10326276;28;20041;-62
2023/09/29 12:59:52;;;;;;;12.88;4.60;;;;;;;;;;10325874;28;20485;-56
2023/09/29 13:04:52;;;;;;;9.88;4.20;;;;;;;;;;10326770;28;20034;-61
2023/09/29 13:09:53;;;;;;;8.73;4.40;;;;;;;;;;10326500;28;20079;-56
2023/09/29 13:14:54;;;;;;;14.90;4.55;;;;;;;;;;10326116;28;20038;-57
2023/09/29 13:19:54;;;;;;;15.55;4.65;;;;;;;;;;10326469;28;20034;-58
2023/09/29 13:24:55;;;;;;;10.20;4.57;;;;;;;;;;10341795;28;20088;-56
2023/09/29 13:29:55;;;;;;;5.32;4.15;;;;;;;;;;10326572;28;20041;-60
2023/09/29 13:34:56;;;;;;;7.30;4.15;;;;;;;;;;10326036;28;20517;-62
2023/09/29 13:39:59;;;;;;;5.85;3.67;;;;;;;;;;10326017;28;20413;-58
2023/09/29 13:45:00;;;;;;;8.80;4.72;;;;;;;;;;10326002;28;20054;-58
2023/09/29 13:50:01;;;;;;;7.75;3.85;;;;;;;;;;10325682;28;20085;-58
2023/09/29 13:55:01;;;;;;;8.20;4.50;;;;;;;;;;10324776;28;20623;-60
2023/09/29 14:00:03;;;;;;;7.18;4.28;;;;;;;;;;10327237;28;20304;-56
2023/09/29 14:05:05;;;;;;;10.70;4.20;;;;;;;;;;10332508;28;20031;-63
2023/09/29 14:10:06;;;;;;;6.45;4.13;;;;;;;;;;10332047;28;20552;-60
2023/09/29 14:15:08;;;;;;;12.80;4.30;;;;;;;;;;10333107;28;20030;-63
2023/09/29 14:20:10;;;;;;;11.93;4.13;;;;;;;;;;10332621;28;20022;-60
2023/09/29 14:25:10;;;;;;;11.00;4.25;;;;;;;;;;10331609;28;20104;-61
2023/09/29 14:30:11;;;;;;;8.45;4.25;;;;;;;;;;10331432;28;20034;-57
2023/09/29 14:35:12;;;;;;;10.52;3.92;;;;;;;;;;10330926;28;20033;-57
2023/09/29 14:40:13;;;;;;;7.82;4.10;;;;;;;;;;10331676;28;20038;-61
2023/09/29 14:45:13;;;;;;;8.48;4.05;;;;;;;;;;10330227;28;20047;-56
2023/09/29 14:50:14;;;;;;;9.40;4.72;;;;;;;;;;10330278;28;20030;-54
2023/09/29 14:55:15;;;;;;;10.68;4.45;;;;;;;;;;10330020;28;20028;-56
2023/09/29 15:00:16;;;;;;;20.55;4.95;;;;;;;;;;10330109;28;20466;-57
2023/09/29 15:05:17;;;;;;;8.32;4.43;;;;;;;;;;10329624;28;20125;-56
2023/09/29 15:10:18;;;;;;;11.57;4.50;;;;;;;;;;10329724;28;20062;-55
2023/09/29 15:15:19;;;;;;;8.00;4.10;;;;;;;;;;10330377;28;20022;-61
2023/09/29 15:20:20;;;;;;;11.48;4.28;;;;;;;;;;10330025;28;20029;-64
2023/09/29 15:25:20;;;;;;;8.93;4.63;;;;;;;;;;10329997;28;20034;-60
2023/09/29 15:30:21;;;;;;;9.43;4.25;;;;;;;;;;10329843;28;20034;-56
2023/09/29 15:35:21;;;;;;;12.27;4.47;;;;;;;;;;10329708;28;20073;-54
2023/09/29 15:40:22;;;;;;;9.68;4.32;;;;;;;;;;10329471;28;20037;-58
2023/09/29 15:45:22;;;;;;;8.88;4.53;;;;;;;;;;10329550;28;20037;-59
2023/09/29 15:50:23;;;;;;;13.35;4.22;;;;;;;;;;10329132;28;20051;-62
2023/09/29 15:55:24;;;;;;;10.77;4.53;;;;;;;;;;10328790;28;20027;-62
2023/09/29 16:00:24;;;;;;;17.33;4.65;;;;;;;;;;10328547;28;20089;-63
2023/09/29 16:05:27;;;;;;;18.65;5.07;;;;;;;;;;10328329;28;20037;-62
2023/09/29 16:10:28;;;;;;;23.92;5.30;;;;;;;;;;10328079;28;20403;-62
2023/09/29 16:15:28;;;;;;;28.23;5.25;;;;;;;;;;10328144;28;20030;-59
2023/09/29 16:20:29;;;;;;;37.58;5.70;;;;;;;;;;10328064;28;20026;-57
2023/09/29 16:25:33;;;;;;;34.50;5.57;;;;;;;;;;10326352;28;20029;-59
2023/09/29 16:30:34;;;;;;;24.50;5.78;;;;;;;;;;10326910;28;20445;-58
2023/09/29 16:35:38;;;;;;;17.05;4.95;;;;;;;;;;10327822;28;20031;-56
2023/09/29 16:40:39;;;;;;;15.57;5.30;;;;;;;;;;10326506;28;20117;-63
2023/09/29 16:45:40;;;;;;;26.85;5.95;;;;;;;;;;10326349;28;20172;-58
2023/09/29 16:50:41;;;;;;;24.45;5.50;;;;;;;;;;10327037;28;20518;-61
2023/09/29 16:55:41;;;;;;;28.77;5.63;;;;;;;;;;10328091;28;20038;-60
2023/09/29 17:00:42;;;;;;;20.08;5.28;;;;;;;;;;10325524;28;20023;-57
2023/09/29 17:05:43;;;;;;;18.70;4.88;;;;;;;;;;10326729;28;20041;-58
2023/09/29 17:10:44;;;;;;;21.77;5.15;;;;;;;;;;10326623;28;20443;-63
2023/09/29 17:15:45;;;;;;;18.35;4.85;;;;;;;;;;10325534;28;20089;-62
2023/09/29 17:20:46;;;;;;;17.33;4.75;;;;;;;;;;10326414;28;20027;-59
2023/09/29 17:25:46;;;;;;;17.35;4.43;;;;;;;;;;10326449;28;20034;-59
2023/09/29 17:30:47;;;;;;;10.52;4.70;;;;;;;;;;10326076;28;20037;-62
2023/09/29 17:35:48;;;;;;;17.25;5.38;;;;;;;;;;10332744;28;20026;-64
2023/09/29 17:40:49;;;;;;;13.18;4.88;;;;;;;;;;10334207;28;20104;-62
2023/09/29 17:45:50;;;;;;;15.52;4.72;;;;;;;;;;10334160;28;20030;-57
2023/09/29 17:50:52;;;;;;;15.57;5.10;;;;;;;;;;10333656;28;20038;-59
2023/09/29 17:55:58;;;;;;;11.73;4.65;;;;;;;;;;10334150;28;20201;-60
2023/09/29 18:01:07;;;;;;;9.90;4.97;;;;;;;;;;10333735;28;20582;-62
2023/09/29 18:06:10;;;;;;;10.75;4.60;;;;;;;;;;10333920;28;20031;-57
2023/09/29 18:11:15;;;;;;;8.98;4.47;;;;;;;;;;10333251;28;20065;-63
2023/09/29 18:16:15;;;;;;;11.98;4.75;;;;;;;;;;10333123;28;20030;-60
2023/09/29 18:21:16;;;;;;;12.38;4.80;;;;;;;;;;10332070;28;20482;-59
2023/09/29 18:26:17;;;;;;;12.38;4.68;;;;;;;;;;10333388;28;20470;-62
2023/09/29 18:31:18;;;;;;;9.57;4.95;;;;;;;;;;10332443;28;20037;-63
2023/09/29 18:36:18;;;;;;;11.15;4.43;;;;;;;;;;10331992;28;20114;-65
2023/09/29 18:41:19;;;;;;;10.38;4.60;;;;;;;;;;10332129;28;20022;-56
2023/09/29 18:46:20;;;;;;;12.90;5.03;;;;;;;;;;10330990;28;20529;-61
2023/09/29 18:51:21;;;;;;;14.60;5.50;;;;;;;;;;10330939;28;20022;-60
2023/09/29 18:56:22;;;;;;;14.02;5.05;;;;;;;;;;10331647;28;20033;-59
2023/09/29 19:01:23;;;;;;;9.20;4.65;;;;;;;;;;10329972;28;20034;-57
2023/09/29 19:06:24;;;;;;;14.95;4.97;;;;;;;;;;10330912;28;20030;-60
2023/09/29 19:11:25;;;;;;;19.13;5.60;;;;;;;;;;10330415;28;20121;-60
2023/09/29 19:16:26;;;;;;;19.05;5.28;;;;;;;;;;10329182;28;20217;-59
2023/09/29 19:21:26;;;;;;;12.13;5.38;;;;;;;;;;10329460;28;20265;-58
2023/09/29 19:26:28;;;;;;;8.15;5.10;;;;;;;;;;10329424;28;20022;-58
2023/09/29 19:31:29;;;;;;;12.93;5.78;;;;;;;;;;10330126;28;20030;-60
2023/09/29 19:36:31;;;;;;;22.45;5.25;;;;;;;;;;10329928;28;20490;-63
2023/09/29 19:41:32;;;;;;;13.30;5.57;;;;;;;;;;10329224;28;20032;-57
2023/09/29 19:46:33;;;;;;;15.07;5.22;;;;;;;;;;10330220;28;20030;-55
2023/09/29 19:51:33;;;;;;;13.10;5.20;;;;;;;;;;10329148;28;20026;-54
2023/09/29 19:56:34;;;;;;;10.52;4.80;;;;;;;;;;10329238;28;20081;-56
2023/09/29 20:01:35;;;;;;;13.25;5.25;;;;;;;;;;10322683;28;20026;-58
2023/09/29 20:06:36;;;;;;;13.25;4.70;;;;;;;;;;10326969;28;20038;-57
2023/09/29 20:11:40;;;;;;;10.45;4.97;;;;;;;;;;10328616;28;20042;-57
2023/09/29 20:16:40;;;;;;;11.73;4.47;;;;;;;;;;10328545;28;20397;-57
2023/09/29 20:21:41;;;;;;;11.55;5.53;;;;;;;;;;10328025;28;20046;-59
2023/09/29 20:26:42;;;;;;;9.05;4.82;;;;;;;;;;10325297;28;20034;-58
2023/09/29 20:31:42;;;;;;;8.80;4.72;;;;;;;;;;10327092;28;20068;-61
2023/09/29 20:36:45;;;;;;;12.88;5.00;;;;;;;;;;10326864;28;20030;-55
2023/09/29 20:41:46;;;;;;;11.98;4.47;;;;;;;;;;10327670;28;20030;-57
2023/09/29 20:46:46;;;;;;;8.52;4.50;;;;;;;;;;10326938;28;20026;-57
2023/09/29 20:51:47;;;;;;;9.13;4.40;;;;;;;;;;10327840;28;20022;-57
2023/09/29 20:56:47;;;;;;;10.40;4.35;;;;;;;;;;10324909;28;20641;-57
2023/09/29 21:01:48;;;;;;;7.65;4.75;;;;;;;;;;10324059;28;20378;-57
2023/09/29 21:06:49;;;;;;;9.63;4.57;;;;;;;;;;10326790;28;20057;-61
2023/09/29 21:11:49;;;;;;;7.50;4.15;;;;;;;;;;10339291;28;20508;-57
2023/09/29 21:16:50;;;;;;;9.90;4.18;;;;;;;;;;10332560;28;20022;-61
2023/09/29 21:21:50;;;;;;;7.38;4.25;;;;;;;;;;10333016;28;20033;-58
2023/09/29 21:26:51;;;;;;;11.52;4.85;;;;;;;;;;10340186;28;20026;-61
2023/09/29 21:31:53;;;;;;;6.45;4.15;;;;;;;;;;10339815;28;20037;-63
2023/09/29 21:36:53;;;;;;;7.43;4.07;;;;;;;;;;10338496;28;20125;-60
2023/09/29 21:41:54;;;;;;;10.68;4.15;;;;;;;;;;10339893;28;20022;-60
2023/09/29 21:46:54;;;;;;;9.98;4.03;;;;;;;;;;10339668;28;20038;-60
2023/09/29 21:51:55;;;;;;;5.70;4.28;;;;;;;;;;10339459;28;20030;-60
2023/09/29 21:56:56;;;;;;;9.18;3.80;;;;;;;;;;10338650;28;20022;-55
2023/09/29 22:01:56;;;;;;;19.13;4.30;;;;;;;;;;10338721;28;20026;-57
2023/09/29 22:06:57;;;;;;;8.05;4.15;;;;;;;;;;10339652;28;20027;-56
2023/09/29 22:12:00;;;;;;;14.60;4.35;;;;;;;;;;10338868;28;20417;-62
2023/09/29 22:17:00;;;;;;;6.43;4.03;;;;;;;;;;10339700;28;20064;-54
2023/09/29 22:22:01;;;;;;;8.73;4.47;;;;;;;;;;10334249;28;20366;-66
2023/09/29 22:27:02;;;;;;;10.27;4.80;;;;;;;;;;10332599;28;20390;-63
2023/09/29 22:32:03;;;;;;;10.25;4.65;;;;;;;;;;10332860;28;20022;-56
2023/09/29 22:37:03;;;;;;;5.50;4.53;;;;;;;;;;10332033;28;20486;-65
2023/09/29 22:42:04;;;;;;;8.85;4.80;;;;;;;;;;10332174;28;20365;-63
2023/09/29 22:47:05;;;;;;;7.45;4.68;;;;;;;;;;10331721;28;20037;-65
2023/09/29 22:52:05;;;;;;;13.05;4.90;;;;;;;;;;10332305;28;20471;-66
2023/09/29 22:57:07;;;;;;;14.27;5.28;;;;;;;;;;10332032;28;20356;-59
2023/09/29 23:02:08;;;;;;;9.15;5.20;;;;;;;;;;10331187;28;20525;-61
2023/09/29 23:07:09;;;;;;;10.02;4.80;;;;;;;;;;10331103;28;20027;-59
2023/09/29 23:12:09;;;;;;;9.52;5.10;;;;;;;;;;10331825;28;20050;-63
2023/09/29 23:17:10;;;;;;;8.73;5.20;;;;;;;;;;10330575;28;20034;-60
2023/09/29 23:22:12;;;;;;;11.07;5.65;;;;;;;;;;10330321;28;20417;-61
2023/09/29 23:27:13;;;;;;;7.45;5.10;;;;;;;;;;10330808;28;20033;-65
2023/09/29 23:32:14;;;;;;;7.80;5.20;;;;;;;;;;10329832;28;20394;-58
2023/09/29 23:37:15;;;;;;;11.70;6.00;;;;;;;;;;10330287;28;20089;-62
2023/09/29 23:42:16;;;;;;;10.80;5.45;;;;;;;;;;10329830;28;20494;-64
2023/09/29 23:47:17;;;;;;;9.50;5.10;;;;;;;;;;10329573;28;20030;-64
2023/09/29 23:52:17;;;;;;;9.45;5.32;;;;;;;;;;10329543;28;20024;-60
2023/09/29 23:57:18;;;;;;;6.88;5.45;;;;;;;;;;10329331;28;20501;-61
